Time;durP1;ratioP1;P1;durP2;ratioP2;P2;SDS_P1;SDS_P2;PMS_P1;PMS_P2;Temp;Humidity;BMP_temperature;BMP_pressure;BME280_temperature;BME280_humidity;BME280_pressure;Samples;Min_cycle;Max_cycle;Signal;HPM_P1;HPM_P2
2021/03/21 00:00:33;;;;;;;1.40;0.20;;;5.20;57.10;;;;;;5068684;28;20226;-62
2021/03/21 00:02:58;;;;;;;1.40;0.20;;;5.20;57.40;;;;;;5067057;28;20180;-62
2021/03/21 00:05:24;;;;;;;1.40;0.20;;;5.40;57.80;;;;;;5071514;28;20266;-63
2021/03/21 00:07:54;;;;;;;1.40;0.20;;;5.50;57.80;;;;;;5065922;28;20205;-63
2021/03/21 00:10:20;;;;;;;6.78;3.20;;;5.40;57.30;;;;;;5070317;28;20207;-63
2021/03/21 00:12:46;;;;;;;1.40;0.30;;;5.40;57.10;;;;;;5071760;28;20177;-62
2021/03/21 00:15:12;;;;;;;2.40;1.23;;;5.40;57.40;;;;;;5072548;28;20641;-63
2021/03/21 00:17:37;;;;;;;1.40;0.20;;;5.30;57.40;;;;;;5070334;28;20563;-62
2021/03/21 00:20:06;;;;;;;1.43;0.20;;;5.30;57.70;;;;;;5075754;28;20185;-63
2021/03/21 00:22:33;;;;;;;1.40;0.20;;;5.30;57.80;;;;;;5067492;28;20195;-63
2021/03/21 00:24:59;;;;;;;1.40;0.20;;;5.30;58.10;;;;;;5071239;28;20327;-63
2021/03/21 00:27:24;;;;;;;1.50;0.37;;;5.30;58.10;;;;;;5052564;28;20231;-63
2021/03/21 00:29:50;;;;;;;2.10;0.50;;;5.30;58.00;;;;;;5071171;28;20216;-63
2021/03/21 00:32:16;;;;;;;2.07;0.67;;;5.30;58.30;;;;;;5071431;28;20196;-62
2021/03/21 00:34:41;;;;;;;1.40;0.20;;;5.30;58.20;;;;;;5070388;28;20187;-62
2021/03/21 00:37:07;;;;;;;1.40;0.20;;;5.30;58.40;;;;;;5068128;28;20203;-63
2021/03/21 00:39:32;;;;;;;1.40;0.20;;;5.30;58.80;;;;;;5069777;28;20221;-62
2021/03/21 00:41:58;;;;;;;8.90;1.33;;;5.20;58.60;;;;;;5071823;28;20189;-62
2021/03/21 00:44:23;;;;;;;1.70;0.40;;;5.20;58.90;;;;;;5069165;28;20211;-64
2021/03/21 00:46:49;;;;;;;1.63;0.67;;;5.30;59.30;;;;;;5074210;28;20262;-64
2021/03/21 00:49:14;;;;;;;1.50;0.30;;;5.20;58.90;;;;;;5073516;28;20188;-63
2021/03/21 00:51:40;;;;;;;1.40;0.20;;;5.20;59.20;;;;;;5073900;28;20193;-63
2021/03/21 00:54:05;;;;;;;1.40;0.20;;;5.10;59.30;;;;;;5075162;28;20192;-64
2021/03/21 00:56:40;;;;;;;1.40;0.20;;;5.10;59.50;;;;;;5054398;28;20228;-63
2021/03/21 00:59:06;;;;;;;1.40;0.20;;;5.10;60.20;;;;;;5074330;28;20184;-64
2021/03/21 01:01:33;;;;;;;1.50;0.50;;;5.00;60.20;;;;;;5068848;28;20185;-63
2021/03/21 01:03:59;;;;;;;1.48;0.20;;;5.10;60.50;;;;;;5074206;28;20919;-63
2021/03/21 01:06:25;;;;;;;1.40;0.20;;;5.10;60.90;;;;;;5072737;28;20232;-63
2021/03/21 01:09:00;;;;;;;1.70;0.63;;;5.10;61.10;;;;;;5074807;28;20195;-62
2021/03/21 01:11:30;;;;;;;3.45;1.63;;;5.10;61.10;;;;;;5074413;28;20183;-62
2021/03/21 01:13:57;;;;;;;1.75;0.55;;;5.10;61.70;;;;;;5070888;28;20177;-66
2021/03/21 01:16:25;;;;;;;1.40;0.30;;;5.00;62.30;;;;;;5075697;28;20232;-63
2021/03/21 01:18:52;;;;;;;1.40;0.20;;;5.00;62.10;;;;;;5074923;28;20180;-63
2021/03/21 01:21:18;;;;;;;1.45;0.20;;;5.10;62.80;;;;;;5075379;28;20189;-63
2021/03/21 01:23:44;;;;;;;1.42;0.20;;;5.10;63.30;;;;;;5073527;28;20204;-63
2021/03/21 01:26:14;;;;;;;1.60;0.50;;;5.10;62.90;;;;;;5071048;28;20696;-62
2021/03/21 01:28:41;;;;;;;1.50;0.30;;;5.10;63.20;;;;;;5073574;28;20348;-63
2021/03/21 01:31:11;;;;;;;1.40;0.20;;;5.10;63.30;;;;;;5074888;28;20172;-65
2021/03/21 01:33:36;;;;;;;2.17;1.15;;;5.10;63.30;;;;;;5071077;28;20274;-63
2021/03/21 01:36:06;;;;;;;1.50;0.40;;;5.00;63.30;;;;;;5072651;28;20335;-63
2021/03/21 01:38:31;;;;;;;1.45;0.22;;;5.00;63.70;;;;;;5072255;28;20208;-63
2021/03/21 01:41:01;;;;;;;2.70;0.73;;;5.00;64.10;;;;;;5070415;28;20201;-64
2021/03/21 01:43:37;;;;;;;1.60;0.63;;;5.00;64.10;;;;;;5070795;28;20208;-62
2021/03/21 01:46:04;;;;;;;1.40;0.20;;;5.10;64.50;;;;;;5071910;28;20184;-63
2021/03/21 01:48:32;;;;;;;1.90;0.80;;;5.10;64.70;;;;;;5071120;28;20541;-62
2021/03/21 01:51:04;;;;;;;2.33;1.30;;;5.10;64.60;;;;;;5073867;28;20532;-63
2021/03/21 01:53:31;;;;;;;2.50;1.35;;;5.00;64.40;;;;;;5084703;28;20188;-62
2021/03/21 01:55:57;;;;;;;1.70;0.60;;;5.00;65.10;;;;;;5081855;28;20651;-63
2021/03/21 01:58:25;;;;;;;1.42;0.20;;;5.00;65.00;;;;;;5083884;28;20202;-63
2021/03/21 02:00:53;;;;;;;1.42;0.20;;;5.10;65.40;;;;;;5086129;28;20194;-62
2021/03/21 02:03:19;;;;;;;1.50;0.30;;;5.10;65.40;;;;;;5073133;28;20261;-62
2021/03/21 02:05:45;;;;;;;1.40;0.20;;;5.00;65.30;;;;;;5072107;28;20201;-62
2021/03/21 02:08:32;;;;;;;2.30;1.40;;;5.10;65.70;;;;;;5072449;28;20447;-62
2021/03/21 02:11:14;;;;;;;3.45;2.30;;;5.00;65.70;;;;;;5046179;28;20571;-62
2021/03/21 02:14:11;;;;;;;1.42;0.20;;;4.90;65.90;;;;;;5071942;28;20291;-62
2021/03/21 02:17:00;;;;;;;1.40;0.20;;;5.00;66.20;;;;;;5047377;28;20230;-62
2021/03/21 02:19:38;;;;;;;1.48;0.20;;;5.00;66.40;;;;;;5071398;28;20188;-62
2021/03/21 02:22:10;;;;;;;1.48;0.20;;;5.00;66.90;;;;;;5072009;28;20339;-62
2021/03/21 02:25:14;;;;;;;1.80;1.38;;;5.00;66.80;;;;;;5071880;28;20204;-62
2021/03/21 02:27:54;;;;;;;1.45;0.30;;;5.00;66.90;;;;;;5067960;28;20693;-62
2021/03/21 02:30:42;;;;;;;1.50;0.30;;;4.90;66.60;;;;;;5070193;28;20180;-62
2021/03/21 02:33:27;;;;;;;1.60;0.60;;;4.90;66.50;;;;;;5071443;28;20260;-64
2021/03/21 02:36:08;;;;;;;4.60;1.90;;;5.00;67.80;;;;;;5070690;28;20196;-63
2021/03/21 02:38:42;;;;;;;6.20;2.65;;;5.00;67.10;;;;;;5068890;28;20172;-63
2021/03/21 02:41:15;;;;;;;1.50;0.20;;;4.90;67.10;;;;;;5068963;28;20707;-62
2021/03/21 02:43:45;;;;;;;1.45;0.20;;;4.90;67.50;;;;;;5070355;28;20200;-63
2021/03/21 02:46:28;;;;;;;1.45;0.20;;;4.80;67.80;;;;;;5070639;28;20212;-62
2021/03/21 02:49:37;;;;;;;1.60;0.50;;;4.90;67.90;;;;;;5065208;28;20667;-62
2021/03/21 02:52:08;;;;;;;1.50;0.20;;;4.90;68.00;;;;;;5057517;28;20192;-62
2021/03/21 02:54:38;;;;;;;1.42;0.20;;;4.90;68.40;;;;;;5069288;28;20191;-63
2021/03/21 02:57:11;;;;;;;3.60;1.38;;;5.00;68.50;;;;;;5070479;28;20204;-62
2021/03/21 02:59:40;;;;;;;1.48;0.20;;;4.90;68.20;;;;;;5065432;28;20200;-61
2021/03/21 03:02:24;;;;;;;3.55;2.33;;;5.00;68.50;;;;;;5070319;28;20184;-65
2021/03/21 03:04:56;;;;;;;2.13;0.65;;;4.90;68.50;;;;;;5070504;28;20219;-63
2021/03/21 03:07:32;;;;;;;1.50;0.20;;;4.90;68.60;;;;;;5068919;28;20196;-62
2021/03/21 03:10:08;;;;;;;2.08;1.85;;;4.90;68.80;;;;;;5069907;28;20250;-62
2021/03/21 03:12:39;;;;;;;1.50;0.40;;;5.00;69.30;;;;;;5072015;28;20181;-63
2021/03/21 03:15:07;;;;;;;1.48;0.20;;;5.00;69.40;;;;;;5069445;28;20188;-63
2021/03/21 03:17:45;;;;;;;3.75;0.60;;;5.10;69.80;;;;;;5069335;28;20235;-62
2021/03/21 03:20:25;;;;;;;1.42;0.20;;;5.10;70.10;;;;;;5069596;28;20192;-62
2021/03/21 03:23:02;;;;;;;1.50;0.35;;;5.00;70.30;;;;;;5068369;28;20184;-62
2021/03/21 03:25:34;;;;;;;3.17;2.28;;;5.00;70.90;;;;;;5069067;28;20218;-63
2021/03/21 03:28:18;;;;;;;1.50;0.30;;;5.00;70.80;;;;;;5071066;28;20706;-62
2021/03/21 03:30:56;;;;;;;3.22;1.20;;;4.90;71.10;;;;;;5070872;28;20608;-62
2021/03/21 03:33:23;;;;;;;1.80;0.73;;;4.90;71.00;;;;;;5069500;28;20279;-62
2021/03/21 03:35:49;;;;;;;1.50;0.38;;;4.90;71.30;;;;;;5070244;28;20254;-62
2021/03/21 03:38:16;;;;;;;1.50;0.30;;;4.90;71.70;;;;;;5048921;28;20188;-62
2021/03/21 03:40:44;;;;;;;12.90;2.67;;;4.90;71.90;;;;;;5067507;28;20184;-63
2021/03/21 03:43:16;;;;;;;1.50;0.20;;;4.90;72.20;;;;;;5069492;28;20226;-63
2021/03/21 03:45:50;;;;;;;1.48;0.20;;;4.90;72.50;;;;;;5070669;28;20206;-63
2021/03/21 03:48:44;;;;;;;2.00;0.47;;;4.80;72.80;;;;;;5065963;28;20224;-63
2021/03/21 03:51:25;;;;;;;1.50;0.20;;;4.80;73.00;;;;;;5071553;28;20188;-62
2021/03/21 03:54:24;;;;;;;2.25;1.05;;;4.80;73.30;;;;;;5069485;28;20184;-62
2021/03/21 03:57:13;;;;;;;1.50;0.20;;;4.80;73.60;;;;;;5069011;28;20303;-62
2021/03/21 03:59:59;;;;;;;1.92;0.50;;;4.80;74.00;;;;;;5090769;28;20211;-63
2021/03/21 04:02:36;;;;;;;1.40;0.20;;;4.80;74.40;;;;;;5092761;28;20180;-64
2021/03/21 04:05:06;;;;;;;2.10;1.15;;;4.80;75.20;;;;;;5092104;28;20208;-63
2021/03/21 04:07:47;;;;;;;3.35;2.70;;;4.80;75.60;;;;;;5068360;28;20212;-63
2021/03/21 04:10:49;;;;;;;1.40;0.20;;;4.80;76.10;;;;;;5074713;28;20227;-64
2021/03/21 04:13:41;;;;;;;1.40;0.20;;;4.80;76.90;;;;;;5042349;28;20244;-63
2021/03/21 04:16:10;;;;;;;3.38;1.42;;;4.80;77.00;;;;;;5074732;28;20180;-64
2021/03/21 04:19:13;;;;;;;3.55;1.58;;;4.80;77.50;;;;;;5072344;28;20277;-63
2021/03/21 04:21:58;;;;;;;1.50;0.40;;;4.80;77.90;;;;;;5048099;28;20278;-63
2021/03/21 04:24:32;;;;;;;1.48;0.30;;;4.90;78.50;;;;;;5073658;28;20616;-62
2021/03/21 04:27:01;;;;;;;1.50;0.20;;;4.90;79.20;;;;;;5071273;28;20207;-62
2021/03/21 04:29:36;;;;;;;6.40;0.80;;;4.90;79.50;;;;;;5073315;28;20256;-62
2021/03/21 04:32:10;;;;;;;1.50;0.20;;;4.90;80.10;;;;;;5073971;28;20200;-63
2021/03/21 04:34:38;;;;;;;1.48;0.20;;;4.90;80.50;;;;;;5053177;28;20667;-62
2021/03/21 04:37:05;;;;;;;1.80;0.60;;;4.90;81.10;;;;;;5052925;28;20555;-62
2021/03/21 04:39:34;;;;;;;1.73;0.60;;;4.80;81.60;;;;;;5072078;28;20624;-65
2021/03/21 04:42:15;;;;;;;1.80;0.60;;;4.90;82.80;;;;;;5070810;28;20633;-63
2021/03/21 04:44:52;;;;;;;8.63;3.13;;;4.90;83.20;;;;;;5064911;28;20214;-62
2021/03/21 04:47:25;;;;;;;1.50;0.20;;;4.80;83.10;;;;;;5072996;28;20212;-62
2021/03/21 04:49:55;;;;;;;3.97;2.28;;;4.90;83.80;;;;;;5071725;28;20689;-62
2021/03/21 04:52:24;;;;;;;1.45;0.20;;;4.90;84.30;;;;;;5070734;28;20493;-63
2021/03/21 04:54:53;;;;;;;1.70;0.50;;;4.90;85.20;;;;;;5072240;28;20588;-63
2021/03/21 04:57:21;;;;;;;2.78;1.23;;;4.80;85.70;;;;;;5070714;28;20647;-62
2021/03/21 04:59:47;;;;;;;1.90;0.90;;;4.70;86.40;;;;;;5071385;28;20203;-62
2021/03/21 05:02:23;;;;;;;3.20;1.80;;;4.70;86.80;;;;;;5073581;28;20655;-63
2021/03/21 05:04:52;;;;;;;1.45;0.20;;;4.70;88.10;;;;;;5069287;28;20622;-63
2021/03/21 05:07:35;;;;;;;4.13;1.80;;;4.70;88.50;;;;;;5072077;28;20196;-62
2021/03/21 05:10:18;;;;;;;3.10;1.33;;;4.80;89.40;;;;;;5067739;28;20641;-63
2021/03/21 05:12:54;;;;;;;2.42;0.93;;;4.70;89.30;;;;;;5073511;28;20176;-62
2021/03/21 05:15:48;;;;;;;1.42;0.20;;;4.70;89.70;;;;;;5074187;28;20651;-62
2021/03/21 05:18:23;;;;;;;3.65;1.60;;;4.70;90.40;;;;;;5074271;28;20555;-62
2021/03/21 05:20:59;;;;;;;1.50;0.20;;;4.70;90.50;;;;;;5074097;28;20184;-63
2021/03/21 05:23:54;;;;;;;1.50;0.30;;;4.70;90.70;;;;;;5075895;28;20522;-63
2021/03/21 05:26:23;;;;;;;1.60;0.43;;;4.70;90.70;;;;;;5070484;28;20192;-62
2021/03/21 05:28:55;;;;;;;1.50;0.20;;;4.70;91.10;;;;;;5076904;28;20192;-61
2021/03/21 05:31:23;;;;;;;1.50;0.40;;;4.70;91.40;;;;;;5071226;28;20189;-62
2021/03/21 05:33:49;;;;;;;1.60;0.55;;;4.70;92.10;;;;;;5068754;28;20256;-62
2021/03/21 05:36:48;;;;;;;3.00;1.90;;;4.70;92.90;;;;;;5072844;28;20204;-62
2021/03/21 05:39:30;;;;;;;7.78;0.85;;;4.60;94.40;;;;;;5071661;28;20218;-62
2021/03/21 05:42:15;;;;;;;1.70;0.70;;;4.50;95.80;;;;;;5067529;28;20211;-62
2021/03/21 05:45:13;;;;;;;5.38;1.40;;;4.50;96.60;;;;;;5063679;28;20283;-63
2021/03/21 05:48:20;;;;;;;1.50;0.20;;;4.50;96.70;;;;;;5057400;28;20253;-62
2021/03/21 05:51:13;;;;;;;3.08;1.60;;;4.60;97.20;;;;;;5069857;28;20561;-62
2021/03/21 05:54:18;;;;;;;4.97;3.08;;;4.70;97.20;;;;;;5068710;28;20219;-62
2021/03/21 05:56:55;;;;;;;1.50;0.20;;;4.70;97.10;;;;;;5068370;28;20666;-63
2021/03/21 05:59:35;;;;;;;2.08;1.00;;;4.70;97.50;;;;;;5069986;28;20424;-63
2021/03/21 06:02:22;;;;;;;1.50;0.20;;;4.80;96.70;;;;;;5070581;28;20176;-63
2021/03/21 06:05:25;;;;;;;1.60;0.30;;;4.80;97.00;;;;;;5068418;28;20294;-62
2021/03/21 06:08:28;;;;;;;3.97;1.17;;;4.70;97.10;;;;;;5069749;28;20195;-62
2021/03/21 06:11:34;;;;;;;1.50;0.20;;;4.80;97.10;;;;;;5068485;28;20268;-62
2021/03/21 06:14:56;;;;;;;2.00;0.77;;;4.80;97.00;;;;;;5067114;28;20257;-63
2021/03/21 06:17:42;;;;;;;2.50;0.82;;;4.80;96.90;;;;;;5067446;28;20303;-62
2021/03/21 06:20:13;;;;;;;4.72;2.72;;;4.80;97.10;;;;;;5056533;28;20283;-65
2021/03/21 06:23:18;;;;;;;3.22;1.40;;;4.70;97.00;;;;;;5071341;28;20173;-62
2021/03/21 06:26:03;;;;;;;3.15;0.50;;;4.70;97.10;;;;;;5070974;28;20691;-62
2021/03/21 06:28:50;;;;;;;2.88;0.73;;;4.70;97.40;;;;;;5073526;28;20179;-62
2021/03/21 06:31:42;;;;;;;1.65;0.43;;;4.70;97.40;;;;;;5067253;28;20184;-63
2021/03/21 06:34:26;;;;;;;2.17;1.00;;;4.70;97.80;;;;;;5067111;28;20181;-62
2021/03/21 06:37:20;;;;;;;1.50;0.20;;;4.80;97.80;;;;;;5067800;28;20222;-63
2021/03/21 06:39:58;;;;;;;1.80;0.50;;;4.80;97.90;;;;;;5070042;28;20184;-62
2021/03/21 06:42:47;;;;;;;2.40;0.93;;;4.80;98.00;;;;;;5046392;28;20262;-62
2021/03/21 06:45:16;;;;;;;6.65;3.88;;;4.80;98.40;;;;;;5066651;28;20208;-62
2021/03/21 06:47:50;;;;;;;5.85;3.28;;;4.80;98.40;;;;;;5070461;28;20212;-62
2021/03/21 06:50:34;;;;;;;5.07;1.75;;;4.80;98.80;;;;;;5069462;28;20177;-62
2021/03/21 06:53:14;;;;;;;3.65;1.33;;;4.70;99.40;;;;;;5066989;28;20254;-62
2021/03/21 06:55:50;;;;;;;1.77;0.43;;;4.70;99.90;;;;;;5067678;28;20245;-63
2021/03/21 06:58:39;;;;;;;2.03;0.50;;;4.80;99.90;;;;;;5071105;28;20550;-62
2021/03/21 07:01:26;;;;;;;2.00;1.27;;;4.80;99.90;;;;;;5069287;28;20184;-62
2021/03/21 07:04:27;;;;;;;3.90;2.05;;;4.80;99.90;;;;;;5069642;28;20188;-62
2021/03/21 07:07:05;;;;;;;2.88;1.70;;;4.80;99.90;;;;;;5070021;28;20220;-62
2021/03/21 07:09:49;;;;;;;3.70;2.13;;;4.80;99.90;;;;;;5070995;28;20327;-62
2021/03/21 07:12:42;;;;;;;1.50;0.20;;;4.80;99.90;;;;;;5045959;28;20215;-62
2021/03/21 07:15:30;;;;;;;4.85;1.55;;;4.90;99.90;;;;;;5068065;28;20635;-63
2021/03/21 07:18:50;;;;;;;5.30;2.97;;;4.90;99.90;;;;;;5069473;28;20250;-63
2021/03/21 07:21:56;;;;;;;4.10;2.25;;;4.80;99.90;;;;;;5069432;28;20269;-62
2021/03/21 07:24:33;;;;;;;2.35;0.55;;;4.80;99.90;;;;;;5067248;28;20200;-61
2021/03/21 07:27:37;;;;;;;7.82;3.80;;;4.80;99.90;;;;;;5068505;28;20193;-62
2021/03/21 07:30:21;;;;;;;3.78;1.90;;;4.80;99.90;;;;;;5046268;28;20191;-62
2021/03/21 07:33:09;;;;;;;4.82;2.30;;;4.80;99.90;;;;;;5068990;28;20706;-62
2021/03/21 07:35:46;;;;;;;11.52;5.13;;;4.80;99.90;;;;;;5067810;28;20192;-62
2021/03/21 07:38:36;;;;;;;4.85;2.38;;;4.90;99.90;;;;;;5066315;28;20284;-61
2021/03/21 07:41:20;;;;;;;1.50;0.20;;;4.80;99.90;;;;;;5067161;28;20203;-62
2021/03/21 07:44:10;;;;;;;1.52;0.20;;;4.90;99.90;;;;;;5069475;28;20551;-62
2021/03/21 07:46:55;;;;;;;1.50;0.20;;;5.00;99.90;;;;;;5045850;28;20212;-63
2021/03/21 07:49:27;;;;;;;2.40;1.60;;;5.00;99.90;;;;;;5069003;28;20208;-62
2021/03/21 07:52:26;;;;;;;3.33;1.10;;;5.00;99.90;;;;;;5065581;28;20310;-63
2021/03/21 07:55:09;;;;;;;2.35;0.85;;;5.10;99.90;;;;;;5068261;28;20188;-62
2021/03/21 07:57:40;;;;;;;2.65;1.52;;;5.00;99.90;;;;;;5069295;28;20196;-63
2021/03/21 08:00:09;;;;;;;2.90;1.20;;;5.00;99.90;;;;;;5074408;28;20551;-63
2021/03/21 08:02:35;;;;;;;3.45;2.38;;;5.00;99.90;;;;;;5074431;28;20290;-63
2021/03/21 08:05:17;;;;;;;5.50;3.43;;;5.10;99.90;;;;;;5072064;28;20283;-63
2021/03/21 08:07:46;;;;;;;2.22;1.10;;;5.10;99.90;;;;;;5066206;28;20217;-63
2021/03/21 08:10:31;;;;;;;8.70;4.13;;;5.10;99.90;;;;;;5056648;28;20593;-63
2021/03/21 08:13:01;;;;;;;2.22;0.95;;;5.10;99.90;;;;;;5072610;28;20181;-62
2021/03/21 08:15:30;;;;;;;7.72;4.53;;;5.20;99.90;;;;;;5073654;28;20195;-62
2021/03/21 08:18:02;;;;;;;3.80;2.22;;;5.20;99.90;;;;;;5073913;28;20212;-63
2021/03/21 08:20:49;;;;;;;2.28;0.73;;;5.30;99.90;;;;;;5073557;28;20180;-63
2021/03/21 08:23:25;;;;;;;7.30;3.90;;;5.40;99.90;;;;;;5069994;28;20188;-62
2021/03/21 08:25:52;;;;;;;3.20;2.00;;;5.40;99.90;;;;;;5066240;28;20184;-61
2021/03/21 08:28:23;;;;;;;2.22;0.88;;;5.60;99.90;;;;;;5070026;28;20230;-61
2021/03/21 08:30:57;;;;;;;3.25;1.92;;;5.60;99.90;;;;;;5070118;28;20223;-63
2021/03/21 08:33:35;;;;;;;2.13;0.50;;;5.60;99.90;;;;;;5067504;28;20195;-62
2021/03/21 08:36:12;;;;;;;4.75;3.20;;;5.60;99.90;;;;;;5070605;28;20215;-62
2021/03/21 08:38:40;;;;;;;1.55;0.20;;;5.70;99.90;;;;;;5068158;28;20180;-62
2021/03/21 08:41:07;;;;;;;1.92;0.85;;;5.80;99.90;;;;;;5071344;28;20266;-63
2021/03/21 08:43:35;;;;;;;5.28;2.45;;;5.90;99.90;;;;;;5069449;28;20570;-62
2021/03/21 08:46:22;;;;;;;4.65;2.03;;;5.90;99.90;;;;;;5053116;28;20268;-62
2021/03/21 08:49:04;;;;;;;4.22;2.65;;;5.90;99.90;;;;;;5070502;28;20270;-62
2021/03/21 08:51:39;;;;;;;2.80;0.65;;;6.00;99.90;;;;;;5074499;28;20283;-62
2021/03/21 08:54:27;;;;;;;3.17;1.58;;;6.00;99.90;;;;;;5070325;28;20529;-61
2021/03/21 08:57:03;;;;;;;5.88;3.30;;;6.00;99.90;;;;;;5072337;28;20201;-62
2021/03/21 08:59:33;;;;;;;3.85;2.05;;;6.10;99.90;;;;;;5072725;28;20667;-61
2021/03/21 09:02:09;;;;;;;5.93;3.22;;;6.10;99.90;;;;;;5072541;28;20188;-61
2021/03/21 09:04:57;;;;;;;1.60;0.30;;;6.10;99.90;;;;;;5068557;28;20210;-61
2021/03/21 09:07:32;;;;;;;3.65;2.38;;;6.20;99.90;;;;;;5069450;28;20564;-62
2021/03/21 09:10:25;;;;;;;4.43;2.28;;;6.20;99.90;;;;;;5073315;28;20187;-62
2021/03/21 09:13:11;;;;;;;3.25;2.05;;;6.20;99.90;;;;;;5071980;28;20187;-62
2021/03/21 09:15:44;;;;;;;3.67;2.15;;;6.10;99.90;;;;;;5069683;28;20249;-62
2021/03/21 09:18:16;;;;;;;2.75;1.40;;;6.10;99.90;;;;;;5070213;28;20201;-60
2021/03/21 09:21:07;;;;;;;2.35;1.45;;;6.20;99.90;;;;;;5070416;28;20552;-62
2021/03/21 09:23:41;;;;;;;1.58;0.20;;;6.20;99.90;;;;;;5073399;28;20546;-62
2021/03/21 09:26:12;;;;;;;2.70;0.85;;;6.30;99.90;;;;;;5069913;28;20216;-63
2021/03/21 09:28:40;;;;;;;4.78;1.27;;;6.50;99.90;;;;;;5073300;28;20191;-62
2021/03/21 09:31:11;;;;;;;3.97;2.80;;;6.70;99.90;;;;;;5091198;28;20195;-62
2021/03/21 09:33:44;;;;;;;7.57;2.17;;;6.60;99.90;;;;;;5087041;28;20175;-62
2021/03/21 09:36:15;;;;;;;2.60;1.17;;;6.70;99.90;;;;;;5089673;28;20260;-61
2021/03/21 09:38:49;;;;;;;1.58;0.25;;;6.80;99.90;;;;;;5076579;28;20189;-61
2021/03/21 09:41:17;;;;;;;6.22;2.25;;;6.90;99.90;;;;;;5080416;28;20206;-65
2021/03/21 09:43:42;;;;;;;1.52;0.20;;;6.90;99.90;;;;;;5071232;28;20233;-61
2021/03/21 09:46:46;;;;;;;4.03;2.77;;;7.00;99.90;;;;;;5071372;28;20181;-61
2021/03/21 09:49:19;;;;;;;2.78;1.83;;;6.90;99.90;;;;;;5071840;28;20522;-64
2021/03/21 09:51:53;;;;;;;3.97;2.20;;;6.80;99.90;;;;;;5071862;28;20335;-62
2021/03/21 09:54:36;;;;;;;2.75;1.23;;;6.80;99.90;;;;;;5073691;28;20798;-61
2021/03/21 09:57:23;;;;;;;7.18;4.57;;;6.60;99.90;;;;;;5071651;28;20192;-62
2021/03/21 10:00:00;;;;;;;5.15;2.70;;;6.50;99.90;;;;;;5071278;28;20180;-61
2021/03/21 10:02:45;;;;;;;2.15;0.93;;;6.50;99.90;;;;;;5076708;28;20643;-62
2021/03/21 10:05:44;;;;;;;3.65;2.55;;;6.40;99.90;;;;;;5068209;28;20208;-62
2021/03/21 10:08:48;;;;;;;2.15;0.93;;;6.50;99.90;;;;;;5073212;28;20200;-62
2021/03/21 10:11:31;;;;;;;3.00;1.90;;;6.50;99.90;;;;;;5073637;28;20237;-62
2021/03/21 10:13:59;;;;;;;4.82;2.70;;;6.50;99.90;;;;;;5071253;28;20181;-60
2021/03/21 10:16:25;;;;;;;5.03;2.00;;;6.60;99.90;;;;;;5071312;28;20204;-62
2021/03/21 10:18:52;;;;;;;1.80;0.50;;;6.70;99.90;;;;;;5071896;28;20191;-62
2021/03/21 10:21:23;;;;;;;3.13;1.45;;;6.70;99.90;;;;;;5069153;28;20711;-62
2021/03/21 10:23:49;;;;;;;3.50;1.40;;;6.60;99.90;;;;;;5071276;28;20204;-61
2021/03/21 10:26:17;;;;;;;2.00;0.60;;;6.70;99.90;;;;;;5071362;28;20748;-62
2021/03/21 10:28:45;;;;;;;2.47;0.60;;;6.80;99.90;;;;;;5071034;28;20446;-61
2021/03/21 10:31:23;;;;;;;2.25;1.02;;;7.00;99.90;;;;;;5070806;28;20176;-63
2021/03/21 10:33:51;;;;;;;1.80;0.57;;;7.00;99.90;;;;;;5073282;28;20180;-63
2021/03/21 10:36:42;;;;;;;3.85;2.22;;;7.10;99.90;;;;;;5071107;28;20209;-62
2021/03/21 10:39:23;;;;;;;3.17;1.58;;;7.10;99.90;;;;;;5065195;28;20180;-62
2021/03/21 10:42:14;;;;;;;1.60;0.20;;;7.20;99.90;;;;;;5056298;28;20208;-62
2021/03/21 10:44:39;;;;;;;2.07;0.60;;;7.30;99.90;;;;;;5070804;28;20867;-62
2021/03/21 10:47:10;;;;;;;3.27;0.80;;;7.30;99.90;;;;;;5069495;28;20458;-61
2021/03/21 10:49:54;;;;;;;3.27;1.57;;;7.30;99.90;;;;;;5062993;28;20180;-63
2021/03/21 10:52:25;;;;;;;4.85;1.50;;;7.30;99.90;;;;;;5064229;28;20786;-61
2021/03/21 10:55:16;;;;;;;2.00;0.65;;;7.30;99.90;;;;;;5069279;28;20663;-61
2021/03/21 10:57:43;;;;;;;1.60;0.20;;;7.40;99.90;;;;;;5052397;28;20212;-63
2021/03/21 11:00:13;;;;;;;3.50;2.30;;;7.50;99.90;;;;;;5071114;28;20431;-62
2021/03/21 11:02:44;;;;;;;2.23;0.93;;;7.60;99.90;;;;;;5070717;28;20442;-62
2021/03/21 11:05:34;;;;;;;5.63;1.47;;;7.60;99.90;;;;;;5069716;28;21034;-62
2021/03/21 11:08:06;;;;;;;1.90;0.50;;;7.60;99.90;;;;;;5066546;28;20484;-61
2021/03/21 11:10:38;;;;;;;3.40;1.50;;;7.70;99.90;;;;;;5073004;28;20439;-61
2021/03/21 11:13:05;;;;;;;1.67;0.30;;;7.80;99.90;;;;;;5078757;28;20477;-63
2021/03/21 11:15:33;;;;;;;1.97;0.70;;;7.80;99.90;;;;;;5074814;28;20455;-62
2021/03/21 11:18:16;;;;;;;1.60;0.20;;;7.90;99.90;;;;;;5068325;28;20799;-65
2021/03/21 11:20:42;;;;;;;2.40;1.03;;;7.80;99.90;;;;;;5072844;28;20444;-62
2021/03/21 11:23:14;;;;;;;3.00;1.13;;;7.80;99.90;;;;;;5073340;28;20546;-62
2021/03/21 11:25:42;;;;;;;2.60;1.03;;;7.80;99.90;;;;;;5071301;28;20219;-62
2021/03/21 11:28:27;;;;;;;2.03;0.53;;;7.80;99.90;;;;;;5071256;28;20485;-63
2021/03/21 11:31:00;;;;;;;4.63;2.10;;;7.90;99.90;;;;;;5050315;28;20445;-63
2021/03/21 11:33:40;;;;;;;2.83;1.00;;;7.90;99.90;;;;;;5070732;28;20435;-63
2021/03/21 11:36:27;;;;;;;1.60;0.47;;;7.90;99.90;;;;;;5069020;28;20442;-63
2021/03/21 11:38:53;;;;;;;5.43;2.63;;;8.00;99.90;;;;;;5070919;28;20442;-62
2021/03/21 11:41:30;;;;;;;1.60;0.40;;;8.00;99.90;;;;;;5071820;28;20960;-64
2021/03/21 11:44:09;;;;;;;1.70;0.60;;;8.00;99.90;;;;;;5068604;28;20553;-63
2021/03/21 11:46:34;;;;;;;1.50;0.20;;;8.00;99.90;;;;;;5061069;28;20463;-63
2021/03/21 11:49:00;;;;;;;4.00;2.00;;;8.00;99.90;;;;;;5070854;28;20988;-62
2021/03/21 11:51:27;;;;;;;2.63;1.43;;;8.00;99.90;;;;;;5070102;28;20198;-64
2021/03/21 11:53:53;;;;;;;1.63;0.30;;;8.00;99.90;;;;;;5070333;28;20184;-63
2021/03/21 11:56:27;;;;;;;2.83;1.23;;;8.10;99.90;;;;;;5071378;28;20878;-63
2021/03/21 11:59:06;;;;;;;2.00;0.80;;;8.30;99.90;;;;;;5072126;28;20434;-63
2021/03/21 12:01:51;;;;;;;3.30;1.63;;;8.40;99.90;;;;;;5069969;28;20442;-63
2021/03/21 12:04:38;;;;;;;2.97;0.70;;;8.60;99.90;;;;;;5069513;28;20814;-66
2021/03/21 12:07:04;;;;;;;1.80;0.60;;;8.60;99.90;;;;;;5070630;28;20828;-63
2021/03/21 12:09:35;;;;;;;2.30;0.63;;;8.70;99.90;;;;;;5070010;28;20418;-63
2021/03/21 12:12:22;;;;;;;1.60;0.40;;;8.80;99.90;;;;;;5069640;28;20522;-65
2021/03/21 12:14:47;;;;;;;2.00;0.30;;;8.80;99.90;;;;;;5068367;28;20458;-64
2021/03/21 12:17:31;;;;;;;3.87;0.90;;;9.00;99.90;;;;;;5067892;28;20462;-63
2021/03/21 12:20:17;;;;;;;2.43;0.83;;;9.10;99.90;;;;;;5073531;28;20604;-63
2021/03/21 12:22:49;;;;;;;2.53;1.07;;;9.10;99.90;;;;;;5070439;28;21038;-65
2021/03/21 12:25:23;;;;;;;1.50;0.20;;;9.20;99.90;;;;;;5069370;28;20508;-64
2021/03/21 12:27:53;;;;;;;1.50;0.20;;;9.30;99.90;;;;;;5069583;28;20765;-63
2021/03/21 12:30:33;;;;;;;2.40;0.60;;;9.40;99.90;;;;;;5064535;28;20671;-64
2021/03/21 12:33:24;;;;;;;2.23;1.30;;;9.40;99.90;;;;;;5068718;28;20442;-63
2021/03/21 12:35:49;;;;;;;1.53;0.20;;;9.50;99.90;;;;;;5070874;28;20474;-64
2021/03/21 12:38:35;;;;;;;1.80;0.50;;;9.40;99.90;;;;;;5070250;28;20535;-63
2021/03/21 12:41:28;;;;;;;1.90;0.60;;;9.50;99.90;;;;;;5071436;28;20207;-63
2021/03/21 12:44:21;;;;;;;1.87;0.67;;;9.50;99.90;;;;;;5070863;28;20458;-63
2021/03/21 12:47:03;;;;;;;2.10;0.60;;;9.50;99.90;;;;;;5073171;28;20465;-64
2021/03/21 12:49:38;;;;;;;1.60;0.30;;;9.50;99.60;;;;;;5073572;28;20813;-66
2021/03/21 12:52:14;;;;;;;3.70;1.40;;;9.50;99.30;;;;;;5072701;28;20426;-62
2021/03/21 12:54:42;;;;;;;2.33;0.73;;;9.50;99.20;;;;;;5066644;28;20430;-63
2021/03/21 12:57:12;;;;;;;3.53;1.07;;;9.60;99.20;;;;;;5074522;28;20454;-63
2021/03/21 12:59:45;;;;;;;1.80;0.63;;;9.50;99.10;;;;;;5073033;28;20485;-64
2021/03/21 13:02:40;;;;;;;3.70;1.00;;;9.50;99.00;;;;;;5071055;28;20443;-64
2021/03/21 13:05:16;;;;;;;4.77;2.03;;;9.50;99.40;;;;;;5054690;28;20477;-63
2021/03/21 13:07:41;;;;;;;1.87;0.73;;;9.50;99.10;;;;;;5054629;28;21001;-63
2021/03/21 13:10:07;;;;;;;4.60;0.80;;;9.50;99.20;;;;;;5070084;28;20534;-62
2021/03/21 13:12:33;;;;;;;1.50;0.20;;;9.60;99.00;;;;;;5074170;28;20192;-63
2021/03/21 13:14:58;;;;;;;1.57;0.20;;;9.60;98.50;;;;;;5075507;28;20450;-64
2021/03/21 13:17:24;;;;;;;1.50;0.20;;;9.70;98.30;;;;;;5071152;28;20204;-63
2021/03/21 13:19:49;;;;;;;1.50;0.20;;;9.80;98.10;;;;;;5077976;28;20188;-63
2021/03/21 13:22:15;;;;;;;1.60;0.30;;;9.80;97.90;;;;;;5073895;28;20644;-63
2021/03/21 13:24:41;;;;;;;2.23;0.93;;;9.80;97.40;;;;;;5071052;28;20197;-63
2021/03/21 13:27:07;;;;;;;1.60;0.33;;;9.70;97.50;;;;;;5070177;28;20280;-63
2021/03/21 13:29:33;;;;;;;2.50;0.90;;;9.80;97.90;;;;;;5071905;28;20195;-63
2021/03/21 13:31:58;;;;;;;1.73;0.30;;;9.90;97.40;;;;;;5073132;28;20435;-63
2021/03/21 13:34:29;;;;;;;2.47;1.03;;;10.00;96.70;;;;;;5071958;28;20670;-62
2021/03/21 13:36:55;;;;;;;1.80;0.70;;;9.90;97.50;;;;;;5054854;28;20296;-63
2021/03/21 13:39:21;;;;;;;4.27;1.30;;;9.80;96.70;;;;;;5057123;28;20447;-63
2021/03/21 13:41:47;;;;;;;1.50;0.20;;;9.80;97.30;;;;;;5073553;28;20434;-63
2021/03/21 13:44:12;;;;;;;2.77;0.70;;;9.80;97.00;;;;;;5071152;28;20216;-63
2021/03/21 13:46:39;;;;;;;2.33;1.07;;;9.80;96.50;;;;;;5072246;28;20643;-64